Frome Half Marathon 2016
Skip Navigation Links
17 July 2016
HyperLink
Page 1 of 6 (286 items)
[1]23456
Pos
Bib No
Fav
Share
Photo
Print
Name
Time
Chip Time
Category
Cat Pos
Gender
Gen Pos
Club
Pace
5k Split
G/Pos
10k Split
G/Pos
KOTH
G/Pos
1234Daniel JONES1:15:14.41:15:12.0Top 31Male1TEAM BATH ATHLETICS CLUB10.4 m/hr17:32.6135:31.313:26.31
2162Tom CRAGGS1:19:27.61:19:24.6Top 32Male2WINCHESTER & DISTRICT AC 9.9 m/hr17:51.3336:59.733:41.83
3216Peter GRIST1:19:50.21:19:47.5Top 33Male3WELLS CITY HARRIERS 9.8 m/hr17:51.2236:38.724:17.58
4233Dan JONES1:22:16.01:22:13.8Sen1Male4  9.6 m/hr18:42.5538:37.143:39.72
5145Ed CAMPBELL1:24:33.81:24:31.0Sen2Male5  9.3 m/hr19:22.5639:26.963:54.84
6380Andrew TRIGG1:28:11.71:28:08.9V501Male6ERME VALLEY HARRIERS 8.9 m/hr20:47.51542:02.8144:00.45
7395Ryan WHEELER1:28:23.11:28:20.0Sen3Male7  8.9 m/hr18:34.9439:22.254:47.730
8348Luke SHIPWAY1:28:38.01:28:33.3Sen4Male8CALNE RUNNING CLUB 8.9 m/hr19:28.4740:42.374:25.915
9303Gavin PARK1:28:44.81:28:35.8Sen5Male9AVON VALLEY RUNNERS 8.9 m/hr21:15.62642:00.8134:14.46
10312Simon PHILLIPS1:29:14.01:29:10.4V502Male10  8.8 m/hr19:36.0840:51.684:24.014
11402Georgia WOOD1:29:15.11:29:11.2Top 31Female1  8.8 m/hr20:11.7141:36.114:06.81
12292Jason OCALLAGHAN1:29:21.81:29:16.2V401Male11ATHLOS TRI 8.8 m/hr19:48.31041:05.0104:18.99
13296Thomas ONEILL1:29:31.11:29:31.1Sen6Male12SOUTHVILLE RUNNING CLUB 8.8 m/hr
14463Liam CULLIFORD1:29:55.61:29:48.1Sen7Male13  8.7 m/hr21:04.22142:26.0174:19.410
15414Andy COX1:30:24.81:30:15.4Sen8Male14NONE 8.7 m/hr20:10.41140:58.994:22.612
16371Chris SUTER1:31:06.21:31:03.6V503Male15  8.6 m/hr20:10.61241:43.5124:39.123
17411Chris BURGHES1:32:27.11:32:24.0V402Male16BASINGSTOKE & MID HANTS AC 8.5 m/hr19:43.4941:13.6114:22.813
18263Dan MASTERS1:32:30.91:32:25.0V403Male17  8.5 m/hr21:08.22242:39.4204:33.420
19421Rob GREEN1:32:39.21:32:36.7V404Male18  8.5 m/hr21:19.82844:06.8294:28.616
20165Kevin DANIELS1:32:48.21:32:32.7Sen9Male19CITY OF SALISBURY AC & RC 8.5 m/hr21:03.22042:22.5165:07.349
21329Keith ROBINSON1:32:58.31:32:51.0V60+1Male20FROME RUNNING CLUB 8.5 m/hr21:11.02342:55.0214:35.222
22200Jonathan FRANCIS1:33:31.41:33:25.7V405Male21FROME RUNNING CLUB 8.4 m/hr20:58.51842:31.9194:54.836
23430Darren LEGG1:33:34.71:33:23.4V406Male22  8.4 m/hr21:28.33143:47.7264:51.134
24393Matt WESTON1:34:07.11:34:00.3Sen10Male23  8.4 m/hr20:17.01342:27.2185:16.759
25429Kirk LATHAM1:35:13.31:35:07.2Sen11Male24ATHLOS TRI 8.3 m/hr22:14.63944:34.7344:32.317
26250Scott LATHAM1:35:13.41:35:07.5Sen12Male25HOT CHILLI 8.3 m/hr22:14.74044:34.6334:32.418
27456Caroline WHEELHOUSE1:35:43.71:35:39.5Top 32Female2DONCASTER ATHLETIC CLUB 8.2 m/hr21:54.5245:06.224:41.63
28270John MCKENZIE1:36:15.71:36:08.2V60+2Male26HEDGE END RUNNING CLUB 8.2 m/hr22:12.23745:37.0394:32.719
29362George STAINSBY1:36:21.61:36:13.5V407Male27TYNE BRIDGE HARRIERS 8.2 m/hr21:15.02443:44.5255:14.856
30376James THOMAS1:36:51.61:36:43.9V408Male28FROME TRI CLUB 8.1 m/hr20:59.31944:12.3304:49.731
31159Matthew COOKE1:37:11.21:36:53.6Sen13Male29CHEDDAR RC 8.1 m/hr21:53.83244:34.4325:01.143
32134Chris BRITTON1:37:13.31:36:43.0Sen14Male30  8.1 m/hr22:26.14145:13.8375:05.745
33409Sebastian BABICKI1:37:22.11:36:08.3Sen15Male31  8.1 m/hr23:51.15746:27.8455:05.244
34443Mike SARGEANT1:37:38.51:37:28.5V409Male32AVON VALLEY RUNNERS 8.0 m/hr21:23.33044:04.1274:50.032
35125Mark BLAY1:37:41.31:37:33.0V4010Male33  8.0 m/hr21:16.12744:34.3314:51.033
36190Olly EVERETT1:37:50.31:37:21.1Sen16Male34  8.0 m/hr21:22.02943:29.1225:42.682
37325Jackie RILEY1:37:51.41:37:37.9Top 33Female3BITTON ROAD RUNNERS 8.0 m/hr22:43.5546:28.955:10.84
38183Robert EDGELL1:37:58.01:37:52.8Sen17Male35ATHLOS RACING 8.0 m/hr22:11.53644:35.3355:49.887
39119James BENNETT1:38:09.41:38:06.0Sen18Male36HAYWARDS HEATH HARRIERS 8.0 m/hr21:15.52544:04.9285:06.246
40413Paul COSTELLO1:39:53.01:39:47.3V60+3Male37  7.9 m/hr22:49.54746:40.1465:00.242
41394Carl WHEELER1:39:55.21:39:53.3Sen19Male38  7.9 m/hr20:56.21643:32.8235:42.983
42166Philip DANIELS1:40:15.81:39:57.9Sen20Male39  7.8 m/hr22:39.74345:42.1415:09.750
43281Nick MOON1:40:24.61:40:07.6Sen21Male40  7.8 m/hr22:54.35047:07.4494:42.126
44284Lucy MORRISON1:40:28.71:40:17.0Sen1Female4CALNE RUNNING CLUB 7.8 m/hr23:20.7847:23.264:39.82
45372Matt SUTHERLAND1:40:37.71:39:55.5Sen22Male41AFFINITY WELLBEING 7.8 m/hr22:59.05146:17.2444:45.528
46350Andrew SIMMONS1:40:44.01:40:36.2V504Male42  7.8 m/hr21:54.43345:47.3425:44.784
47448Laura SWANTON1:40:48.41:40:40.4Sen2Female5SOUTH WEST ROAD RUNNERS 7.8 m/hr22:43.0446:20.445:28.88
48446Freddy SIMPSON1:41:07.21:40:44.4Sen23Male43  7.8 m/hr21:59.33545:50.7435:34.172
49172William DE BOLLA1:41:35.91:41:32.0Sen24Male44FROME RUNNING CLUB 7.7 m/hr20:20.01442:03.8155:48.585
50117Elizabeth BEBBINGTON1:41:38.81:41:30.5V501Female6NAILSEA RUNNING CLUB 7.7 m/hr22:26.0346:11.136:06.420
Page 1 of 6 (286 items)
[1]23456
fb